createdAt,value
2022-08-02T00:00:34.264Z,13.51
2022-08-02T00:03:01.169Z,13.50
2022-08-02T00:05:28.127Z,13.46
2022-08-02T00:07:55.121Z,13.43
2022-08-02T00:10:22.073Z,13.46
2022-08-02T00:12:49.036Z,13.43
2022-08-02T00:15:16.560Z,13.41
2022-08-02T00:17:46.364Z,13.41
2022-08-02T00:20:15.848Z,13.39
2022-08-02T00:22:42.855Z,13.33
2022-08-02T00:25:10.048Z,13.32
2022-08-02T00:27:36.949Z,13.25
2022-08-02T00:30:04.924Z,13.25
2022-08-02T00:32:31.971Z,13.30
2022-08-02T00:34:58.908Z,13.17
2022-08-02T00:37:25.854Z,13.15
2022-08-02T00:39:52.827Z,13.16
2022-08-02T00:42:19.972Z,13.09
2022-08-02T00:44:46.913Z,13.02
2022-08-02T00:47:19.071Z,12.96
2022-08-02T00:49:46.765Z,12.93
2022-08-02T00:52:14.192Z,12.90
2022-08-02T00:54:41.465Z,12.88
2022-08-02T00:57:08.606Z,12.87
2022-08-02T00:59:35.556Z,12.81
2022-08-02T01:02:02.593Z,12.80
2022-08-02T01:04:31.215Z,12.76
2022-08-02T01:07:12.506Z,12.72
2022-08-02T01:09:41.534Z,12.69
2022-08-02T01:12:09.269Z,12.66
2022-08-02T01:14:36.708Z,12.68
2022-08-02T01:17:27.832Z,12.65
2022-08-02T01:20:12.353Z,12.60
2022-08-02T01:23:02.058Z,12.63
2022-08-02T01:25:48.313Z,12.62
2022-08-02T01:28:53.931Z,12.63
2022-08-02T01:31:46.253Z,12.64
2022-08-02T01:34:48.465Z,12.64
2022-08-02T01:37:32.973Z,12.59
2022-08-02T01:40:17.768Z,12.61
2022-08-02T01:42:50.011Z,12.57
2022-08-02T01:45:20.268Z,12.56
2022-08-02T01:47:48.435Z,12.53
2022-08-02T01:50:18.685Z,12.54
2022-08-02T01:52:53.998Z,12.57
2022-08-02T01:55:35.314Z,12.55
2022-08-02T01:58:24.860Z,12.58
2022-08-02T02:00:53.089Z,12.60
2022-08-02T02:03:24.621Z,12.60
2022-08-02T02:05:55.891Z,12.57
2022-08-02T02:08:32.843Z,12.57
2022-08-02T02:12:12.116Z,12.60
2022-08-02T02:13:50.601Z,12.60
2022-08-02T02:16:19.953Z,12.63
2022-08-02T02:18:48.055Z,12.62
2022-08-02T02:21:15.404Z,12.65
2022-08-02T02:23:43.548Z,12.68
2022-08-02T02:26:14.655Z,12.73
2022-08-02T02:28:47.909Z,12.74
2022-08-02T02:31:19.495Z,12.75
2022-08-02T02:34:16.782Z,12.69
2022-08-02T02:36:49.612Z,12.73
2022-08-02T02:39:22.332Z,12.72
2022-08-02T02:41:51.973Z,12.71
2022-08-02T02:44:21.861Z,12.67
2022-08-02T02:46:54.198Z,12.67
2022-08-02T02:49:23.286Z,12.66
2022-08-02T02:51:52.459Z,12.65
2022-08-02T02:54:32.309Z,12.63
2022-08-02T02:57:03.688Z,12.62
2022-08-02T02:59:32.085Z,12.65
2022-08-02T03:01:59.109Z,12.67
2022-08-02T03:04:55.775Z,12.71
2022-08-02T03:07:16.303Z,12.73
2022-08-02T03:09:43.416Z,12.75
2022-08-02T03:12:11.600Z,12.79
2022-08-02T03:14:44.038Z,12.81
2022-08-02T03:17:11.157Z,12.84
2022-08-02T03:19:38.256Z,12.86
2022-08-02T03:22:05.301Z,12.89
2022-08-02T03:24:32.619Z,12.90
2022-08-02T03:26:59.598Z,12.93
2022-08-02T03:29:26.523Z,12.92
2022-08-02T03:31:54.349Z,12.89
2022-08-02T03:34:22.060Z,12.97
2022-08-02T03:36:54.253Z,12.99
2022-08-02T03:39:22.286Z,13.00
2022-08-02T03:41:50.291Z,13.05
2022-08-02T03:44:18.174Z,13.06
2022-08-02T03:46:45.653Z,13.09
2022-08-02T03:49:16.467Z,13.03
2022-08-02T03:51:44.811Z,13.09
2022-08-02T03:54:12.192Z,13.11
2022-08-02T03:56:39.936Z,13.12
2022-08-02T03:59:14.098Z,13.15
2022-08-02T04:01:41.328Z,13.10
2022-08-02T04:04:08.553Z,13.18
2022-08-02T04:06:35.833Z,13.19
2022-08-02T04:09:07.441Z,13.22
2022-08-02T04:11:34.503Z,13.24
2022-08-02T04:14:09.413Z,13.23
2022-08-02T04:16:46.868Z,13.26
2022-08-02T04:19:31.692Z,13.27
2022-08-02T04:22:04.786Z,13.25
2022-08-02T04:24:39.425Z,13.30
2022-08-02T04:27:51.278Z,13.31
2022-08-02T04:29:58.004Z,13.34
2022-08-02T04:32:25.274Z,13.36
2022-08-02T04:35:18.093Z,13.37
2022-08-02T04:38:09.469Z,13.40
2022-08-02T04:40:27.215Z,13.37
2022-08-02T04:42:54.300Z,13.36
2022-08-02T04:45:22.272Z,13.36
2022-08-02T04:48:01.440Z,13.33
2022-08-02T04:50:30.651Z,13.32
2022-08-02T04:52:57.632Z,13.36
2022-08-02T04:55:28.388Z,13.35
2022-08-02T04:57:57.334Z,13.33
2022-08-02T05:00:27.003Z,13.39
2022-08-02T05:02:57.584Z,13.39
2022-08-02T05:05:25.015Z,13.41
2022-08-02T05:07:52.472Z,13.44
2022-08-02T05:10:20.011Z,13.43
2022-08-02T05:12:47.148Z,13.47
2022-08-02T05:15:16.636Z,13.47
2022-08-02T05:17:47.690Z,13.51
2022-08-02T05:20:17.269Z,13.55
2022-08-02T05:22:44.574Z,13.59
2022-08-02T05:25:11.912Z,13.64
2022-08-02T05:27:38.876Z,13.68
2022-08-02T05:30:07.465Z,13.74
2022-08-02T05:32:34.549Z,13.77
2022-08-02T05:35:02.730Z,13.84
2022-08-02T05:37:31.877Z,13.91
2022-08-02T05:40:00.797Z,13.97
2022-08-02T05:42:32.261Z,14.03
2022-08-02T05:44:59.691Z,14.09
2022-08-02T05:47:26.656Z,14.16
2022-08-02T05:49:53.824Z,14.25
2022-08-02T05:52:22.899Z,14.34
2022-08-02T05:55:15.045Z,14.46
2022-08-02T05:58:03.994Z,14.57
2022-08-02T06:00:33.174Z,14.70
2022-08-02T06:03:22.364Z,14.79
2022-08-02T06:06:05.369Z,14.95
2022-08-02T06:08:39.252Z,15.13
2022-08-02T06:11:07.399Z,15.35
2022-08-02T06:13:35.156Z,15.47
2022-08-02T06:16:03.807Z,15.62
2022-08-02T06:18:32.171Z,15.79
2022-08-02T06:22:31.433Z,15.92
2022-08-02T06:23:58.096Z,16.07
2022-08-02T06:26:28.030Z,16.30
2022-08-02T06:28:57.769Z,16.59
2022-08-02T06:31:25.488Z,16.86
2022-08-02T06:33:53.788Z,17.17
2022-08-02T06:36:46.108Z,17.50
2022-08-02T06:39:32.217Z,17.96
2022-08-02T06:42:06.245Z,18.33
2022-08-02T06:44:54.253Z,18.68
2022-08-02T06:47:22.065Z,18.90
2022-08-02T06:49:52.065Z,19.20
2022-08-02T06:52:29.704Z,19.67
2022-08-02T06:54:59.482Z,19.94
2022-08-02T06:57:27.461Z,20.05
2022-08-02T06:59:55.165Z,20.37
2022-08-02T07:02:22.224Z,20.88
2022-08-02T07:04:49.376Z,20.91
2022-08-02T07:07:16.329Z,21.27
2022-08-02T07:09:56.905Z,21.14
2022-08-02T07:12:32.850Z,21.44
2022-08-02T07:15:04.494Z,21.48
2022-08-02T07:17:31.663Z,21.38
2022-08-02T07:19:59.382Z,21.60
2022-08-02T07:22:28.109Z,21.83
2022-08-02T07:24:57.641Z,21.94
2022-08-02T07:27:25.313Z,21.94
2022-08-02T07:29:52.932Z,22.19
2022-08-02T07:32:24.323Z,22.44
2022-08-02T07:34:53.575Z,22.35
2022-08-02T07:37:52.772Z,22.52
2022-08-02T07:40:19.837Z,21.93
2022-08-02T07:42:57.823Z,22.56
2022-08-02T07:45:30.463Z,22.66
2022-08-02T07:47:57.432Z,22.87
2022-08-02T07:50:24.594Z,22.97
2022-08-02T07:52:57.233Z,23.29
2022-08-02T07:55:25.437Z,23.44
2022-08-02T07:58:07.071Z,23.81
2022-08-02T08:00:38.400Z,23.90
2022-08-02T08:03:06.267Z,24.10
2022-08-02T08:05:33.249Z,24.04
2022-08-02T08:08:00.332Z,23.88
2022-08-02T08:10:27.367Z,24.15
2022-08-02T08:12:55.226Z,24.65
2022-08-02T08:15:22.468Z,24.10
2022-08-02T08:17:49.460Z,24.65
2022-08-02T08:20:16.410Z,24.85
2022-08-02T08:22:43.879Z,25.43
2022-08-02T08:25:10.882Z,25.35
2022-08-02T08:27:38.043Z,25.51
2022-08-02T08:30:05.485Z,25.65
2022-08-02T08:32:32.428Z,25.53
2022-08-02T08:34:59.633Z,25.57
2022-08-02T08:37:27.271Z,25.95
2022-08-02T08:39:58.442Z,26.02
2022-08-02T08:42:31.274Z,25.70
2022-08-02T08:44:59.734Z,26.01
2022-08-02T08:47:39.832Z,25.95
2022-08-02T08:50:20.087Z,24.96
2022-08-02T08:53:07.401Z,25.63
2022-08-02T08:55:36.980Z,25.52
2022-08-02T08:58:06.247Z,25.51
2022-08-02T09:00:36.040Z,26.05
2022-08-02T09:03:05.805Z,26.32
2022-08-02T09:05:36.866Z,25.73
2022-08-02T09:08:05.189Z,25.85
2022-08-02T09:10:46.064Z,25.96
2022-08-02T09:13:38.664Z,26.41
2022-08-02T09:16:11.812Z,25.97
2022-08-02T09:18:47.353Z,26.61
2022-08-02T09:21:17.015Z,26.61
2022-08-02T09:23:52.917Z,26.87
2022-08-02T09:26:23.394Z,27.08
2022-08-02T09:28:59.949Z,27.50
2022-08-02T09:31:27.316Z,27.34
2022-08-02T09:33:59.757Z,27.90
2022-08-02T09:36:40.648Z,28.18
2022-08-02T09:39:15.871Z,28.09
2022-08-02T09:41:45.661Z,27.80
2022-08-02T09:44:16.378Z,27.85
2022-08-02T09:46:47.177Z,27.74
2022-08-02T09:49:19.830Z,27.63
2022-08-02T09:51:47.163Z,28.40
2022-08-02T09:54:32.946Z,28.24
2022-08-02T09:57:02.054Z,29.06
2022-08-02T09:59:29.922Z,28.69
2022-08-02T10:02:02.215Z,28.80
2022-08-02T10:04:34.325Z,29.06
2022-08-02T10:07:21.639Z,28.85
2022-08-02T10:09:50.490Z,28.38
2022-08-02T10:12:17.784Z,28.18
2022-08-02T10:14:45.720Z,28.25
2022-08-02T10:17:12.855Z,27.89
2022-08-02T10:20:01.834Z,27.65
2022-08-02T10:22:27.881Z,27.50
2022-08-02T10:24:55.423Z,26.93
2022-08-02T10:27:25.072Z,26.57
2022-08-02T10:29:56.100Z,26.44
2022-08-02T10:32:43.988Z,26.75
2022-08-02T10:35:26.027Z,26.97
2022-08-02T10:37:58.592Z,27.38
2022-08-02T10:40:28.744Z,27.61
2022-08-02T10:43:00.922Z,27.14
2022-08-02T10:45:29.141Z,27.30
2022-08-02T10:48:06.014Z,27.08
2022-08-02T10:50:48.373Z,27.80
2022-08-02T10:53:34.825Z,27.73
2022-08-02T10:56:05.127Z,27.16
2022-08-02T10:58:34.418Z,27.44
2022-08-02T11:01:38.724Z,27.54
2022-08-02T11:04:10.550Z,27.97
2022-08-02T11:07:17.186Z,28.36
2022-08-02T11:09:47.802Z,28.38
2022-08-02T11:12:22.053Z,28.63
2022-08-02T11:15:07.419Z,28.44
2022-08-02T11:17:55.372Z,28.75
2022-08-02T11:20:25.015Z,28.20
2022-08-02T11:22:54.923Z,28.76
2022-08-02T11:25:24.801Z,28.87
2022-08-02T11:27:53.728Z,28.72
2022-08-02T11:30:26.744Z,29.26
2022-08-02T11:32:59.479Z,29.20
2022-08-02T11:35:53.419Z,28.98
2022-08-02T11:38:22.576Z,28.54
2022-08-02T11:40:50.098Z,28.90
2022-08-02T11:43:27.774Z,29.12
2022-08-02T11:45:56.508Z,28.90
2022-08-02T11:48:35.218Z,28.17
2022-08-02T11:51:15.208Z,29.15
2022-08-02T11:53:51.398Z,28.53
2022-08-02T11:56:30.206Z,28.90
2022-08-02T11:59:10.625Z,29.21
2022-08-02T12:01:45.601Z,28.87
2022-08-02T12:04:18.556Z,29.37
2022-08-02T12:06:56.245Z,28.91
2022-08-02T12:09:26.508Z,28.94
2022-08-02T12:11:54.923Z,29.08
2022-08-02T12:14:23.992Z,28.78
2022-08-02T12:17:10.472Z,28.70
2022-08-02T12:19:38.667Z,28.93
2022-08-02T12:22:13.728Z,28.88
2022-08-02T12:24:44.812Z,28.75
2022-08-02T12:27:38.164Z,28.59
2022-08-02T12:30:13.897Z,28.49
2022-08-02T12:32:42.232Z,28.66
2022-08-02T12:35:15.337Z,28.59
2022-08-02T12:37:54.152Z,28.58
2022-08-02T12:40:31.232Z,27.74
2022-08-02T12:43:01.868Z,28.18
2022-08-02T12:45:48.666Z,28.19
2022-08-02T12:48:36.469Z,27.97
2022-08-02T12:51:24.192Z,27.97
2022-08-02T12:53:59.759Z,27.93
2022-08-02T12:56:39.458Z,28.10
2022-08-02T12:59:07.057Z,28.00
2022-08-02T13:01:35.897Z,28.00
2022-08-02T13:04:12.015Z,28.11
2022-08-02T13:06:44.580Z,27.95
2022-08-02T13:09:15.405Z,27.85
2022-08-02T13:11:43.707Z,27.91
2022-08-02T13:14:12.760Z,27.83
2022-08-02T13:16:40.973Z,27.76
2022-08-02T13:19:07.936Z,28.06
2022-08-02T13:21:40.634Z,27.93
2022-08-02T13:24:41.110Z,27.97
2022-08-02T13:27:10.281Z,27.82
2022-08-02T13:29:38.256Z,27.68
2022-08-02T13:32:05.732Z,27.90
2022-08-02T13:34:32.726Z,27.68
2022-08-02T13:36:59.990Z,27.75
2022-08-02T13:39:26.948Z,27.98
2022-08-02T13:41:55.108Z,28.18
2022-08-02T13:44:22.328Z,28.00
2022-08-02T13:46:49.290Z,28.11
2022-08-02T13:49:19.853Z,28.16
2022-08-02T13:51:48.296Z,28.03
2022-08-02T13:54:18.058Z,28.08
2022-08-02T13:56:45.319Z,28.11
2022-08-02T13:59:53.499Z,27.74
2022-08-02T14:01:59.843Z,27.64
2022-08-02T14:04:27.689Z,27.71
2022-08-02T14:06:54.699Z,27.60
2022-08-02T14:09:26.245Z,27.61
2022-08-02T14:11:53.402Z,27.66
2022-08-02T14:14:20.419Z,27.82
2022-08-02T14:16:47.537Z,27.68
2022-08-02T14:19:15.559Z,27.76
2022-08-02T14:21:46.688Z,27.89
2022-08-02T14:24:18.823Z,27.70
2022-08-02T14:26:47.336Z,27.78
2022-08-02T14:29:15.855Z,27.82
2022-08-02T14:31:44.784Z,27.87
2022-08-02T14:34:13.451Z,27.79
2022-08-02T14:36:40.531Z,27.77
2022-08-02T14:39:07.570Z,27.85
2022-08-02T14:42:00.038Z,27.88
2022-08-02T14:44:24.026Z,27.83
2022-08-02T14:46:51.882Z,27.64
2022-08-02T14:49:24.479Z,27.78
2022-08-02T14:51:56.144Z,27.81
2022-08-02T14:54:30.045Z,27.46
2022-08-02T14:57:02.998Z,27.55
2022-08-02T14:59:30.696Z,27.58
2022-08-02T15:01:58.608Z,27.76
2022-08-02T15:04:25.781Z,27.60
2022-08-02T15:06:53.449Z,27.64
2022-08-02T15:09:22.094Z,27.48
2022-08-02T15:11:49.844Z,27.48
2022-08-02T15:14:22.100Z,27.42
2022-08-02T15:16:58.756Z,27.44
2022-08-02T15:19:35.424Z,27.44
2022-08-02T15:22:16.101Z,27.30
2022-08-02T15:24:44.707Z,27.31
2022-08-02T15:27:13.729Z,27.37
2022-08-02T15:29:41.505Z,27.28
2022-08-02T15:32:08.601Z,27.38
2022-08-02T15:34:35.739Z,27.34
2022-08-02T15:37:03.224Z,27.28
2022-08-02T15:39:30.504Z,27.49
2022-08-02T15:41:57.766Z,27.29
2022-08-02T15:44:25.041Z,27.47
2022-08-02T15:46:54.104Z,27.32
2022-08-02T15:49:23.840Z,27.27
2022-08-02T15:51:52.239Z,27.28
2022-08-02T15:54:19.550Z,27.30
2022-08-02T15:56:46.642Z,27.30
2022-08-02T15:59:13.769Z,27.26
2022-08-02T16:01:44.989Z,27.28
2022-08-02T16:04:15.022Z,27.03
2022-08-02T16:06:42.386Z,27.16
2022-08-02T16:09:09.540Z,27.06
2022-08-02T16:11:36.507Z,26.81
2022-08-02T16:14:04.052Z,26.97
2022-08-02T16:16:33.704Z,27.11
2022-08-02T16:19:46.351Z,26.90
2022-08-02T16:21:50.493Z,27.10
2022-08-02T16:24:17.885Z,26.99
2022-08-02T16:26:45.007Z,27.01
2022-08-02T16:29:12.789Z,27.01
2022-08-02T16:31:42.821Z,27.09
2022-08-02T16:34:10.299Z,26.82
2022-08-02T16:36:37.575Z,26.83
2022-08-02T16:39:05.450Z,26.78
2022-08-02T16:41:45.484Z,26.64
2022-08-02T16:44:29.221Z,26.77
2022-08-02T16:47:00.456Z,26.79
2022-08-02T16:52:16.667Z,26.74
2022-08-02T16:54:49.354Z,26.69
2022-08-02T16:57:17.297Z,26.69
2022-08-02T16:59:57.801Z,26.81
2022-08-02T17:02:28.552Z,26.80
2022-08-02T17:04:56.656Z,26.73
2022-08-02T17:08:07.451Z,26.70
2022-08-02T17:10:11.276Z,26.65
2022-08-02T17:12:39.554Z,26.80
2022-08-02T17:16:01.154Z,26.66
2022-08-02T17:17:56.474Z,26.66
2022-08-02T17:20:24.541Z,26.65
2022-08-02T17:22:52.586Z,26.72
2022-08-02T17:25:20.295Z,26.69
2022-08-02T17:27:47.667Z,26.58
2022-08-02T17:30:26.895Z,26.70
2022-08-02T17:32:57.799Z,26.53
2022-08-02T17:35:27.287Z,26.68
2022-08-02T17:38:10.911Z,26.42
2022-08-02T17:40:44.845Z,26.64
2022-08-02T17:43:14.654Z,26.34
2022-08-02T17:46:00.855Z,26.43
2022-08-02T17:48:49.426Z,26.16
2022-08-02T17:51:32.976Z,26.15
2022-08-02T17:54:04.198Z,26.15
2022-08-02T17:56:31.484Z,26.20
2022-08-02T17:59:22.800Z,26.25
2022-08-02T18:02:11.643Z,26.08
2022-08-02T18:04:38.859Z,26.12
2022-08-02T18:07:09.389Z,25.87
2022-08-02T18:09:37.159Z,25.69
2022-08-02T18:12:14.197Z,25.86
2022-08-02T18:14:46.091Z,25.67
2022-08-02T18:17:16.621Z,25.65
2022-08-02T18:19:57.286Z,25.72
2022-08-02T18:22:30.831Z,25.49
2022-08-02T18:24:57.838Z,25.48
2022-08-02T18:27:24.827Z,25.31
2022-08-02T18:30:00.075Z,25.42
2022-08-02T18:33:54.692Z,25.28
2022-08-02T18:35:23.344Z,25.32
2022-08-02T18:38:00.791Z,25.21
2022-08-02T18:40:31.032Z,25.03
2022-08-02T18:42:58.026Z,25.07
2022-08-02T18:45:36.922Z,25.02
2022-08-02T18:51:06.305Z,25.08
2022-08-02T18:53:41.561Z,24.78
2022-08-02T18:56:20.418Z,24.75
2022-08-02T18:58:55.092Z,24.79
2022-08-02T19:01:32.333Z,24.75
2022-08-02T19:04:04.948Z,24.72
2022-08-02T19:06:32.480Z,24.58
2022-08-02T19:09:06.164Z,24.38
2022-08-02T19:11:47.304Z,24.52
2022-08-02T19:14:19.393Z,24.49
2022-08-02T19:16:54.732Z,24.45
2022-08-02T19:19:22.111Z,24.39
2022-08-02T19:22:18.091Z,24.15
2022-08-02T19:24:38.180Z,24.25
2022-08-02T19:27:13.971Z,23.89
2022-08-02T19:29:51.003Z,24.05
2022-08-02T19:32:41.531Z,23.96
2022-08-02T19:35:19.940Z,23.85
2022-08-02T19:37:58.943Z,23.84
2022-08-02T19:40:27.608Z,23.68
2022-08-02T19:44:21.396Z,23.67
2022-08-02T19:45:49.788Z,23.60
2022-08-02T19:48:24.029Z,23.55
2022-08-02T19:50:56.202Z,23.37
2022-08-02T19:53:47.385Z,23.25
2022-08-02T19:56:21.050Z,23.13
2022-08-02T19:58:55.629Z,23.16
2022-08-02T20:01:37.222Z,23.10
2022-08-02T20:04:12.999Z,23.08
2022-08-02T20:06:45.094Z,23.02
2022-08-02T20:09:16.505Z,22.99
2022-08-02T20:11:46.804Z,22.92
2022-08-02T20:14:26.847Z,22.89
2022-08-02T20:16:56.026Z,22.69
2022-08-02T20:19:24.236Z,22.66
2022-08-02T20:21:58.642Z,22.60
2022-08-02T20:24:28.255Z,22.56
2022-08-02T20:26:59.057Z,22.51
2022-08-02T20:29:44.865Z,22.43
2022-08-02T20:32:22.683Z,22.39
2022-08-02T20:34:50.745Z,22.32
2022-08-02T20:37:59.088Z,22.29
2022-08-02T20:40:10.292Z,22.33
2022-08-02T20:42:45.787Z,22.25
2022-08-02T20:45:15.428Z,22.17
2022-08-02T20:47:42.476Z,22.24
2022-08-02T20:50:32.113Z,22.13
2022-08-02T20:53:00.656Z,22.07
2022-08-02T20:55:31.125Z,22.03
2022-08-02T20:58:01.731Z,22.02
2022-08-02T21:00:30.165Z,21.96
2022-08-02T21:03:00.229Z,21.91
2022-08-02T21:05:43.585Z,21.92
2022-08-02T21:08:15.391Z,21.88
2022-08-02T21:10:52.312Z,21.82
2022-08-02T21:13:26.685Z,21.69
2022-08-02T21:15:55.742Z,21.65
2022-08-02T21:18:37.027Z,21.63
2022-08-02T21:21:09.624Z,21.55
2022-08-02T21:23:37.763Z,21.52
2022-08-02T21:26:06.750Z,21.44
2022-08-02T21:28:44.256Z,21.43
2022-08-02T21:31:16.073Z,21.45
2022-08-02T21:33:57.123Z,21.40
2022-08-02T21:36:32.729Z,21.36
2022-08-02T21:39:08.974Z,21.34
2022-08-02T21:41:46.312Z,21.29
2022-08-02T21:44:19.526Z,21.25
2022-08-02T21:46:54.991Z,21.15
2022-08-02T21:49:40.613Z,21.21
2022-08-02T21:52:13.591Z,21.17
2022-08-02T21:54:41.113Z,21.09
2022-08-02T21:57:16.161Z,21.04
2022-08-02T21:59:46.254Z,21.12
2022-08-02T22:02:15.267Z,21.10
2022-08-02T22:04:47.775Z,21.01
2022-08-02T22:07:23.943Z,20.96
2022-08-02T22:09:51.411Z,21.03
2022-08-02T22:12:19.185Z,20.92
2022-08-02T22:14:53.806Z,20.82
2022-08-02T22:17:51.490Z,20.87
2022-08-02T22:20:15.412Z,20.82
2022-08-02T22:22:42.527Z,20.82
2022-08-02T22:25:10.310Z,20.78
2022-08-02T22:28:34.691Z,20.70
2022-08-02T22:30:41.600Z,20.66
2022-08-02T22:36:16.514Z,20.65
2022-08-02T22:38:45.447Z,20.58
2022-08-02T22:41:14.051Z,20.53
2022-08-02T22:43:42.805Z,20.55
2022-08-02T22:46:15.644Z,20.48
2022-08-02T22:48:45.291Z,20.37
2022-08-02T22:51:14.238Z,20.43
2022-08-02T22:53:43.328Z,20.42
2022-08-02T22:56:11.150Z,20.29
2022-08-02T22:58:45.655Z,25.07
2022-08-02T22:58:50.747Z,26.68
2022-08-02T22:59:07.886Z,20.30
2022-08-02T23:01:25.982Z,20.30
2022-08-02T23:03:52.975Z,20.33
2022-08-02T23:06:21.118Z,20.27
2022-08-02T23:08:50.440Z,20.23
2022-08-02T23:11:17.791Z,20.21
2022-08-02T23:13:44.738Z,20.25
2022-08-02T23:16:30.501Z,20.24
2022-08-02T23:19:15.955Z,20.20
2022-08-02T23:21:45.892Z,20.16
2022-08-02T23:24:30.316Z,19.87
2022-08-02T23:26:57.214Z,19.95
2022-08-02T23:29:24.202Z,19.99
2022-08-02T23:31:51.206Z,19.96
2022-08-02T23:34:19.831Z,19.99
2022-08-02T23:36:46.800Z,19.92
2022-08-02T23:39:13.737Z,19.91
2022-08-02T23:41:40.941Z,19.89
2022-08-02T23:44:15.507Z,19.88
2022-08-02T23:46:47.348Z,19.81
2022-08-02T23:49:16.682Z,19.89
2022-08-02T23:51:44.046Z,19.94
2022-08-02T23:54:11.635Z,19.82
2022-08-02T23:56:39.835Z,19.79
2022-08-02T23:59:07.860Z,19.81
